createdAt,value
2024-03-16T00:01:19.331Z,12.52
2024-03-16T00:03:47.970Z,20.48
2024-03-16T00:06:16.407Z,27.50
2024-03-16T00:08:44.833Z,28.55
2024-03-16T00:11:13.315Z,22.20
2024-03-16T00:13:41.952Z,19.08
2024-03-16T00:16:10.644Z,21.23
2024-03-16T00:18:39.232Z,16.17
2024-03-16T00:21:07.814Z,13.25
2024-03-16T00:23:36.550Z,11.68
2024-03-16T00:26:05.175Z,17.00
2024-03-16T00:28:34.334Z,24.33
2024-03-16T00:31:05.317Z,16.55
2024-03-16T00:33:35.445Z,13.82
2024-03-16T00:36:03.915Z,17.10
2024-03-16T00:38:32.347Z,20.08
2024-03-16T00:41:00.819Z,13.50
2024-03-16T00:43:29.435Z,16.50
2024-03-16T00:45:56.945Z,15.32
2024-03-16T00:48:25.425Z,14.32
2024-03-16T00:50:55.026Z,13.80
2024-03-16T00:53:23.491Z,14.43
2024-03-16T00:55:51.958Z,14.20
2024-03-16T00:58:21.040Z,12.18
2024-03-16T01:00:50.583Z,13.60
2024-03-16T01:03:20.062Z,13.32
2024-03-16T01:05:52.725Z,18.27
2024-03-16T01:08:21.153Z,15.65
2024-03-16T01:10:56.025Z,13.10
2024-03-16T01:13:24.965Z,16.17
2024-03-16T01:15:53.894Z,11.30
2024-03-16T01:18:22.425Z,20.52
2024-03-16T01:20:50.893Z,14.00
2024-03-16T01:23:20.807Z,9.57
2024-03-16T01:25:50.733Z,13.25
2024-03-16T01:28:19.439Z,12.25
2024-03-16T01:30:48.028Z,14.98
2024-03-16T01:33:16.514Z,14.63
2024-03-16T01:35:45.155Z,9.98
2024-03-16T01:38:13.696Z,10.40
2024-03-16T01:40:42.118Z,9.55
2024-03-16T01:43:13.223Z,11.15
2024-03-16T01:45:42.347Z,10.45
2024-03-16T01:48:11.886Z,12.10
2024-03-16T01:50:40.359Z,13.63
2024-03-16T01:53:10.641Z,8.38
2024-03-16T01:55:39.340Z,13.23
2024-03-16T01:58:08.613Z,14.95
2024-03-16T02:00:37.304Z,12.05
2024-03-16T02:03:05.930Z,12.50
2024-03-16T02:05:37.405Z,12.93
2024-03-16T02:08:06.355Z,13.15
2024-03-16T02:10:35.285Z,16.83
2024-03-16T02:13:04.200Z,13.73
2024-03-16T02:15:33.398Z,12.10
2024-03-16T02:18:01.984Z,12.13
2024-03-16T02:20:32.833Z,15.13
2024-03-16T02:23:01.463Z,12.32
2024-03-16T02:25:30.415Z,9.23
2024-03-16T02:27:58.957Z,10.25
2024-03-16T02:30:27.971Z,10.35
2024-03-16T02:32:56.935Z,16.63
2024-03-16T02:35:25.461Z,9.52
2024-03-16T02:37:54.008Z,9.38
2024-03-16T02:40:24.303Z,13.88
2024-03-16T02:42:52.779Z,14.10
2024-03-16T02:45:22.219Z,11.48
2024-03-16T02:47:50.867Z,11.75
2024-03-16T02:50:21.070Z,14.63
2024-03-16T02:52:49.581Z,9.68
2024-03-16T02:55:18.449Z,16.80
2024-03-16T02:57:46.979Z,10.35
2024-03-16T03:00:17.161Z,12.38
2024-03-16T03:02:45.659Z,10.77
2024-03-16T03:05:20.529Z,8.55
2024-03-16T03:07:49.421Z,14.02
2024-03-16T03:10:18.145Z,9.98
2024-03-16T03:12:47.550Z,9.13
2024-03-16T03:15:16.051Z,12.02
2024-03-16T03:17:44.531Z,11.00
2024-03-16T03:20:13.031Z,10.45
2024-03-16T03:22:41.716Z,13.65
2024-03-16T03:25:11.911Z,12.15
2024-03-16T03:27:40.439Z,9.38
2024-03-16T03:30:09.302Z,11.88
2024-03-16T03:32:37.934Z,11.88
2024-03-16T03:35:08.112Z,10.25
2024-03-16T03:37:36.770Z,11.57
2024-03-16T03:40:06.041Z,10.52
2024-03-16T03:42:36.165Z,8.32
2024-03-16T03:45:25.686Z,9.98
2024-03-16T03:48:04.196Z,9.70
2024-03-16T03:50:34.368Z,16.77
2024-03-16T03:53:04.394Z,9.25
2024-03-16T03:55:32.924Z,12.43
2024-03-16T03:58:03.452Z,15.98
2024-03-16T04:00:32.093Z,11.27
2024-03-16T04:03:00.856Z,9.20
2024-03-16T04:05:29.299Z,9.35
2024-03-16T04:07:57.818Z,5.05
2024-03-16T04:10:26.358Z,9.73
2024-03-16T04:12:55.411Z,9.63
2024-03-16T04:15:24.512Z,7.35
2024-03-16T04:17:53.057Z,9.05
2024-03-16T04:20:23.056Z,5.90
2024-03-16T04:22:51.710Z,5.15
2024-03-16T04:25:20.335Z,4.43
2024-03-16T04:27:48.867Z,7.32
2024-03-16T04:30:17.350Z,10.77
2024-03-16T04:32:46.065Z,6.10
2024-03-16T04:35:14.661Z,7.50
2024-03-16T04:37:43.114Z,10.40
2024-03-16T04:40:12.184Z,6.85
2024-03-16T04:42:40.705Z,6.38
2024-03-16T04:45:09.569Z,11.15
2024-03-16T04:47:38.146Z,8.77
2024-03-16T04:50:06.950Z,7.60
2024-03-16T04:52:35.666Z,12.00
2024-03-16T04:55:04.524Z,7.18
2024-03-16T04:57:33.108Z,11.43
2024-03-16T05:00:01.499Z,7.03
2024-03-16T05:02:31.895Z,8.45
2024-03-16T05:05:00.295Z,7.07
2024-03-16T05:07:28.900Z,8.23
2024-03-16T05:09:57.460Z,8.00
2024-03-16T05:12:26.387Z,7.88
2024-03-16T05:14:55.209Z,7.68
2024-03-16T05:17:23.709Z,7.22
2024-03-16T05:19:53.252Z,6.57
2024-03-16T05:22:21.808Z,4.53
2024-03-16T05:24:54.543Z,4.28
2024-03-16T05:27:23.033Z,6.53
2024-03-16T05:29:52.663Z,10.23
2024-03-16T05:32:21.091Z,5.55
2024-03-16T05:34:50.563Z,5.88
2024-03-16T05:37:19.593Z,5.82
2024-03-16T05:39:48.056Z,6.45
2024-03-16T05:42:16.497Z,6.93
2024-03-16T05:44:44.899Z,7.00
2024-03-16T05:47:13.444Z,6.72
2024-03-16T05:49:41.945Z,5.43
2024-03-16T05:52:10.419Z,11.40
2024-03-16T05:54:39.125Z,5.53
2024-03-16T05:57:08.227Z,6.15
2024-03-16T05:59:36.772Z,6.30
2024-03-16T06:02:05.224Z,6.68
2024-03-16T06:04:33.736Z,7.63
2024-03-16T06:07:02.332Z,11.25
2024-03-16T06:09:30.936Z,7.40
2024-03-16T06:11:59.503Z,7.13
2024-03-16T06:14:27.999Z,11.77
2024-03-16T06:16:58.064Z,8.40
2024-03-16T06:19:26.643Z,7.88
2024-03-16T06:21:55.254Z,7.93
2024-03-16T06:24:24.710Z,9.05
2024-03-16T06:27:01.527Z,11.15
2024-03-16T06:29:32.119Z,11.50
2024-03-16T06:32:07.422Z,11.13
2024-03-16T06:34:35.987Z,9.38
2024-03-16T06:37:05.238Z,10.32
2024-03-16T06:39:33.818Z,9.70
2024-03-16T06:42:02.434Z,6.00
2024-03-16T06:44:31.407Z,7.88
2024-03-16T06:46:59.919Z,12.82
2024-03-16T06:49:28.464Z,8.98
2024-03-16T06:51:56.896Z,7.40
2024-03-16T06:54:25.267Z,8.27
2024-03-16T06:56:54.038Z,6.35
2024-03-16T06:59:22.825Z,8.00
2024-03-16T07:01:52.301Z,10.02
2024-03-16T07:04:20.909Z,8.68
2024-03-16T07:06:49.463Z,8.10
2024-03-16T07:09:19.813Z,8.30
2024-03-16T07:11:49.030Z,6.15
2024-03-16T07:14:18.222Z,7.43
2024-03-16T07:16:46.633Z,8.43
2024-03-16T07:19:15.173Z,9.27
2024-03-16T07:21:43.760Z,11.02
2024-03-16T07:24:13.516Z,9.52
2024-03-16T07:26:46.592Z,8.40
2024-03-16T07:29:15.491Z,8.80
2024-03-16T07:31:43.951Z,8.25
2024-03-16T07:34:12.472Z,12.50
2024-03-16T07:36:41.024Z,9.45
2024-03-16T07:39:10.111Z,11.07
2024-03-16T07:41:39.315Z,9.57
2024-03-16T07:44:08.851Z,10.07
2024-03-16T07:46:39.348Z,11.77
2024-03-16T07:49:10.303Z,11.10
2024-03-16T07:51:39.051Z,11.05
2024-03-16T07:54:12.615Z,10.32
2024-03-16T07:56:41.143Z,10.27
2024-03-16T07:59:10.961Z,14.90
2024-03-16T08:01:41.354Z,12.77
2024-03-16T08:04:10.253Z,14.63
2024-03-16T08:06:39.286Z,9.68
2024-03-16T08:09:09.774Z,9.55
2024-03-16T08:11:38.221Z,13.68
2024-03-16T08:14:09.446Z,17.42
2024-03-16T08:16:38.197Z,17.27
2024-03-16T08:19:07.180Z,9.52
2024-03-16T08:21:37.317Z,15.13
2024-03-16T08:24:06.921Z,11.98
2024-03-16T08:26:35.310Z,16.75
2024-03-16T08:29:03.786Z,15.95
2024-03-16T08:31:32.329Z,14.38
2024-03-16T08:34:00.905Z,13.68
2024-03-16T08:36:29.778Z,8.80
2024-03-16T08:38:58.411Z,8.13
2024-03-16T08:41:26.990Z,11.80
2024-03-16T08:43:55.589Z,14.32
2024-03-16T08:46:27.396Z,12.30
2024-03-16T08:48:56.458Z,11.50
2024-03-16T08:51:25.669Z,13.05
2024-03-16T08:53:55.392Z,14.80
2024-03-16T08:56:25.325Z,13.05
2024-03-16T08:58:54.064Z,10.82
2024-03-16T09:01:23.158Z,14.90
2024-03-16T09:03:51.709Z,12.60
2024-03-16T09:06:20.423Z,13.25
2024-03-16T09:08:48.973Z,12.57
2024-03-16T09:11:17.950Z,10.30
2024-03-16T09:13:47.515Z,13.45
2024-03-16T09:16:16.825Z,15.50
2024-03-16T09:18:46.297Z,10.80
2024-03-16T09:21:14.867Z,11.20
2024-03-16T09:23:43.234Z,7.78
2024-03-16T09:26:11.770Z,11.85
2024-03-16T09:28:40.416Z,12.02
2024-03-16T09:31:11.458Z,13.48
2024-03-16T09:33:40.137Z,12.70
2024-03-16T09:36:08.698Z,6.57
2024-03-16T09:38:37.369Z,3.40
2024-03-16T09:41:06.563Z,2.70
